createdAt,value
2023-01-12T00:01:25.165Z,10.50
2023-01-12T00:03:52.133Z,10.50
2023-01-12T00:06:21.752Z,10.50
2023-01-12T00:08:48.564Z,10.40
2023-01-12T00:11:15.393Z,10.50
2023-01-12T00:13:42.061Z,10.50
2023-01-12T00:16:37.464Z,10.40
2023-01-12T00:19:12.574Z,10.40
2023-01-12T00:22:09.634Z,10.40
2023-01-12T00:24:40.107Z,10.40
2023-01-12T00:27:08.642Z,10.50
2023-01-12T00:29:35.916Z,10.40
2023-01-12T00:32:03.026Z,10.40
2023-01-12T00:34:30.043Z,10.40
2023-01-12T00:36:56.907Z,10.40
2023-01-12T00:39:23.619Z,10.40
2023-01-12T00:42:09.865Z,10.40
2023-01-12T00:44:55.478Z,10.40
2023-01-12T00:47:22.242Z,10.40
2023-01-12T00:49:49.475Z,10.40
2023-01-12T00:52:29.293Z,10.40
2023-01-12T00:54:57.469Z,10.50
2023-01-12T00:57:24.389Z,10.40
2023-01-12T00:59:55.007Z,10.50
2023-01-12T01:02:22.231Z,10.50
2023-01-12T01:04:49.833Z,10.50
2023-01-12T01:07:17.318Z,10.50
2023-01-12T01:09:44.342Z,10.60
2023-01-12T01:12:11.089Z,10.60
2023-01-12T01:14:37.798Z,10.50
2023-01-12T01:17:04.564Z,10.50
2023-01-12T01:19:31.378Z,10.50
2023-01-12T01:21:58.069Z,10.50
2023-01-12T01:24:24.903Z,10.40
2023-01-12T01:26:51.629Z,10.50
2023-01-12T01:29:18.491Z,10.50
2023-01-12T01:31:47.914Z,10.50
2023-01-12T01:34:14.935Z,10.50
2023-01-12T01:36:41.630Z,10.50
2023-01-12T01:39:08.593Z,10.50
2023-01-12T01:41:35.333Z,10.60
2023-01-12T01:44:24.515Z,10.50
2023-01-12T01:46:52.600Z,10.50
2023-01-12T01:49:37.054Z,10.60
2023-01-12T01:52:09.636Z,10.60
2023-01-12T01:54:42.122Z,10.60
2023-01-12T01:57:10.641Z,10.60
2023-01-12T01:59:37.486Z,10.70
2023-01-12T02:02:04.378Z,10.70
2023-01-12T02:04:31.797Z,10.70
2023-01-12T02:06:59.112Z,10.70
2023-01-12T02:09:26.335Z,10.70
2023-01-12T02:12:12.429Z,10.70
2023-01-12T02:14:58.291Z,10.80
2023-01-12T02:18:02.162Z,10.80
2023-01-12T02:20:48.640Z,10.90
2023-01-12T02:23:19.126Z,10.90
2023-01-12T02:25:45.857Z,11.00
2023-01-12T02:28:27.482Z,11.00
2023-01-12T02:31:18.800Z,11.10
2023-01-12T02:33:52.037Z,11.10
2023-01-12T02:36:37.263Z,11.10
2023-01-12T02:39:14.120Z,11.10
2023-01-12T02:42:09.340Z,11.20
2023-01-12T02:44:40.815Z,11.30
2023-01-12T02:47:09.661Z,11.30
2023-01-12T02:49:40.060Z,11.30
2023-01-12T02:52:09.555Z,11.40
2023-01-12T02:54:36.313Z,11.40
2023-01-12T02:57:10.513Z,11.40
2023-01-12T02:59:42.049Z,11.50
2023-01-12T03:02:17.707Z,11.50
2023-01-12T03:04:44.404Z,11.50
2023-01-12T03:07:43.870Z,11.60
2023-01-12T03:10:29.636Z,11.60
2023-01-12T03:12:56.305Z,11.60
2023-01-12T03:15:23.149Z,11.60
2023-01-12T03:17:54.458Z,11.60
2023-01-12T03:20:24.736Z,11.60
2023-01-12T03:22:53.755Z,11.60
2023-01-12T03:25:20.633Z,11.60
2023-01-12T03:27:50.009Z,11.60
2023-01-12T03:30:40.049Z,11.60
2023-01-12T03:33:06.918Z,11.70
2023-01-12T03:35:37.291Z,11.70
2023-01-12T03:38:35.364Z,11.70
2023-01-12T03:41:07.515Z,11.70
2023-01-12T03:43:43.532Z,11.70
2023-01-12T03:46:21.204Z,11.70
2023-01-12T03:48:51.423Z,11.70
2023-01-12T03:51:26.060Z,11.80
2023-01-12T03:53:52.754Z,11.70
2023-01-12T03:56:19.951Z,11.80
2023-01-12T03:58:47.551Z,11.80
2023-01-12T04:01:14.645Z,11.80
2023-01-12T04:03:41.485Z,11.90
2023-01-12T04:06:08.420Z,12.00
2023-01-12T04:08:35.258Z,12.00
2023-01-12T04:11:21.891Z,12.10
2023-01-12T04:13:48.643Z,12.20
2023-01-12T04:16:15.543Z,12.20
2023-01-12T04:18:42.197Z,12.30
2023-01-12T04:21:28.861Z,12.30
2023-01-12T04:23:55.634Z,12.30
2023-01-12T04:26:22.409Z,12.30
2023-01-12T04:28:49.259Z,12.30
2023-01-12T04:31:16.183Z,12.30
2023-01-12T04:33:43.419Z,12.30
2023-01-12T04:36:11.425Z,12.30
2023-01-12T04:38:38.630Z,12.30
2023-01-12T04:41:06.436Z,12.30
2023-01-12T04:43:33.383Z,12.20
2023-01-12T04:46:04.818Z,12.20
2023-01-12T04:48:31.647Z,12.20
2023-01-12T04:50:59.719Z,12.20
2023-01-12T04:53:26.530Z,12.30
2023-01-12T04:55:53.215Z,12.30
2023-01-12T04:58:19.952Z,12.40
2023-01-12T05:00:46.615Z,12.30
2023-01-12T05:03:13.816Z,12.40
2023-01-12T05:05:40.527Z,12.40
2023-01-12T05:08:25.730Z,12.30
2023-01-12T05:10:55.485Z,12.30
2023-01-12T05:13:22.576Z,12.30
2023-01-12T05:15:49.331Z,12.40
2023-01-12T05:18:16.038Z,12.40
2023-01-12T05:20:42.701Z,12.50
2023-01-12T05:23:09.410Z,12.50
2023-01-12T05:25:36.163Z,12.50
2023-01-12T05:28:02.914Z,12.50
2023-01-12T05:30:31.699Z,12.50
2023-01-12T05:32:58.877Z,12.50
2023-01-12T05:35:25.537Z,12.40
2023-01-12T05:37:54.203Z,12.40
2023-01-12T05:40:20.960Z,12.40
2023-01-12T05:43:22.817Z,12.40
2023-01-12T05:45:49.890Z,12.50
2023-01-12T05:48:16.835Z,12.50
2023-01-12T05:50:43.575Z,12.50
2023-01-12T05:53:10.635Z,12.60
2023-01-12T05:55:38.062Z,12.60
2023-01-12T05:58:04.863Z,12.60
2023-01-12T06:00:31.589Z,12.60
2023-01-12T06:02:58.314Z,12.60
2023-01-12T06:05:25.054Z,12.60
2023-01-12T06:07:51.735Z,12.60
2023-01-12T06:10:18.567Z,12.60
2023-01-12T06:13:03.822Z,12.60
2023-01-12T06:15:32.541Z,12.60
2023-01-12T06:17:59.277Z,12.60
2023-01-12T06:20:25.973Z,12.60
2023-01-12T06:22:52.763Z,12.60
2023-01-12T06:25:19.496Z,12.50
2023-01-12T06:27:46.209Z,12.50
2023-01-12T06:30:13.130Z,12.50
2023-01-12T06:32:41.616Z,12.50
2023-01-12T06:35:18.712Z,12.50
2023-01-12T06:37:46.492Z,12.50
2023-01-12T06:40:13.593Z,12.60
2023-01-12T06:42:42.125Z,12.60
2023-01-12T06:45:09.760Z,12.60
2023-01-12T06:47:47.354Z,12.60
2023-01-12T06:50:14.080Z,12.60
2023-01-12T06:52:40.945Z,12.60
2023-01-12T06:55:08.028Z,12.70
2023-01-12T06:57:34.686Z,12.70
2023-01-12T07:00:01.474Z,12.70
2023-01-12T07:02:28.241Z,12.60
2023-01-12T07:04:54.917Z,12.50
2023-01-12T07:07:21.656Z,12.60
2023-01-12T07:09:48.371Z,12.50
2023-01-12T07:12:15.063Z,12.60
2023-01-12T07:14:41.742Z,12.60
2023-01-12T07:17:08.489Z,12.60
2023-01-12T07:19:35.189Z,12.60
2023-01-12T07:22:01.897Z,12.60
2023-01-12T07:24:28.571Z,12.60
2023-01-12T07:26:58.119Z,12.60
2023-01-12T07:29:25.285Z,12.60
2023-01-12T07:31:52.051Z,12.60
2023-01-12T07:34:18.809Z,12.60
2023-01-12T07:36:47.888Z,12.60
2023-01-12T07:39:14.559Z,12.60
2023-01-12T07:41:59.743Z,12.60
2023-01-12T07:44:26.445Z,12.60
2023-01-12T07:46:53.181Z,12.60
2023-01-12T07:49:19.956Z,12.60
2023-01-12T07:51:46.651Z,12.60
2023-01-12T07:54:13.414Z,12.60
2023-01-12T07:56:40.066Z,12.60
2023-01-12T07:59:06.812Z,12.50
2023-01-12T08:01:35.881Z,12.60
2023-01-12T08:04:02.611Z,12.50
2023-01-12T08:06:29.459Z,12.50
2023-01-12T08:08:56.229Z,12.50
2023-01-12T08:11:22.982Z,12.40
2023-01-12T08:13:53.936Z,12.40
2023-01-12T08:16:22.531Z,12.40
2023-01-12T08:18:50.962Z,12.40
2023-01-12T08:21:20.061Z,12.30
2023-01-12T08:23:52.518Z,12.30
2023-01-12T08:26:23.721Z,12.20
2023-01-12T08:28:54.593Z,12.20
2023-01-12T08:31:21.275Z,12.10
2023-01-12T08:33:47.990Z,12.10
2023-01-12T08:36:15.383Z,12.00
2023-01-12T08:38:42.240Z,12.00
2023-01-12T08:41:27.514Z,12.00
2023-01-12T08:44:03.185Z,11.90
2023-01-12T08:46:46.833Z,11.90
2023-01-12T08:49:16.938Z,11.90
2023-01-12T08:51:44.024Z,11.90
2023-01-12T08:54:14.138Z,11.90
2023-01-12T08:56:40.862Z,11.90
2023-01-12T08:59:07.764Z,11.80
2023-01-12T09:01:34.820Z,11.80
2023-01-12T09:04:01.811Z,11.80
2023-01-12T09:06:30.641Z,11.80
2023-01-12T09:08:59.018Z,11.80
2023-01-12T09:11:26.169Z,11.80
2023-01-12T09:13:52.917Z,11.80
2023-01-12T09:16:20.080Z,11.80
2023-01-12T09:18:46.857Z,11.80
2023-01-12T09:21:15.428Z,11.80
2023-01-12T09:23:42.745Z,11.90
2023-01-12T09:26:17.511Z,12.00
2023-01-12T09:28:45.920Z,12.00
2023-01-12T09:31:18.908Z,12.00
2023-01-12T09:33:45.825Z,12.00
2023-01-12T09:36:17.032Z,12.10
2023-01-12T09:38:44.470Z,12.10
2023-01-12T09:41:48.500Z,12.10
2023-01-12T09:44:52.591Z,12.10
2023-01-12T09:47:31.686Z,12.20
2023-01-12T09:50:13.470Z,12.20
2023-01-12T09:52:40.231Z,12.30
2023-01-12T09:55:13.383Z,12.30
2023-01-12T09:57:58.939Z,12.30
2023-01-12T10:00:28.103Z,12.30
2023-01-12T10:03:11.336Z,12.40
2023-01-12T10:05:49.172Z,12.40
2023-01-12T10:08:39.057Z,12.40
2023-01-12T10:11:33.335Z,12.50
2023-01-12T10:14:23.478Z,12.50
2023-01-12T10:17:20.556Z,12.50
2023-01-12T10:19:53.082Z,12.50
2023-01-12T10:22:38.916Z,12.50
2023-01-12T10:25:50.648Z,12.60
2023-01-12T10:28:37.608Z,12.60
2023-01-12T10:31:04.586Z,12.70
2023-01-12T10:33:32.774Z,12.70
2023-01-12T10:36:02.056Z,12.80
2023-01-12T10:38:51.883Z,12.80
2023-01-12T10:41:19.305Z,12.80
2023-01-12T10:43:47.731Z,12.80
2023-01-12T10:46:18.467Z,12.80
2023-01-12T10:48:48.830Z,12.80
2023-01-12T10:51:23.228Z,12.80
2023-01-12T10:53:52.479Z,12.80
2023-01-12T10:56:28.227Z,12.80
2023-01-12T10:59:03.656Z,12.80
2023-01-12T11:01:51.336Z,12.70
2023-01-12T11:04:22.701Z,12.60
2023-01-12T11:06:55.729Z,12.60
2023-01-12T11:09:27.250Z,12.60
2023-01-12T11:12:05.193Z,12.50
2023-01-12T11:14:34.071Z,12.40
2023-01-12T11:17:14.668Z,12.40
2023-01-12T11:19:42.168Z,12.30
2023-01-12T11:22:16.102Z,12.20
2023-01-12T11:24:49.966Z,12.20
2023-01-12T11:27:20.921Z,12.00
2023-01-12T11:30:02.816Z,12.10
2023-01-12T11:32:35.352Z,12.00
2023-01-12T11:35:17.779Z,12.00
2023-01-12T11:37:44.498Z,12.00
2023-01-12T11:40:34.230Z,12.00
2023-01-12T11:43:42.353Z,12.10
2023-01-12T11:46:15.937Z,12.10
2023-01-12T11:49:00.732Z,12.10
2023-01-12T11:51:27.552Z,12.10
2023-01-12T11:53:54.379Z,12.10
2023-01-12T11:56:27.075Z,12.10
2023-01-12T11:59:19.730Z,12.10
2023-01-12T12:01:52.459Z,12.10
2023-01-12T12:04:22.731Z,12.20
2023-01-12T12:06:49.376Z,12.20
2023-01-12T12:09:32.139Z,12.20
2023-01-12T12:12:22.975Z,12.30
2023-01-12T12:15:07.847Z,12.30
2023-01-12T12:17:42.240Z,12.30
2023-01-12T12:20:23.805Z,12.30
2023-01-12T12:23:03.476Z,12.20
2023-01-12T12:25:48.388Z,12.20
2023-01-12T12:28:39.492Z,12.20
2023-01-12T12:31:38.679Z,12.20
2023-01-12T12:34:12.687Z,12.20
2023-01-12T12:36:43.644Z,12.20
2023-01-12T12:39:14.498Z,12.30
2023-01-12T12:42:22.499Z,12.30
2023-01-12T12:45:16.487Z,12.30
2023-01-12T12:48:01.140Z,12.30
2023-01-12T12:50:32.640Z,12.20
2023-01-12T12:53:08.361Z,12.20
2023-01-12T12:55:35.702Z,12.30
2023-01-12T12:58:03.899Z,12.30
2023-01-12T13:00:42.752Z,12.40
2023-01-12T13:03:09.849Z,12.40
2023-01-12T13:05:47.222Z,12.40
2023-01-12T13:08:33.761Z,12.40
2023-01-12T13:11:00.464Z,12.40
2023-01-12T13:13:31.720Z,12.40
2023-01-12T13:16:20.480Z,12.40
2023-01-12T13:18:52.674Z,12.30
2023-01-12T13:21:58.068Z,12.30
2023-01-12T13:24:41.661Z,12.30
2023-01-12T13:27:27.037Z,12.30
2023-01-12T13:29:54.713Z,12.30
2023-01-12T13:32:35.741Z,12.30
2023-01-12T13:35:02.667Z,12.40
2023-01-12T13:37:38.197Z,12.40
2023-01-12T13:40:20.897Z,12.40
2023-01-12T13:43:08.144Z,12.40
2023-01-12T13:45:34.914Z,12.40
2023-01-12T13:48:01.785Z,12.40
2023-01-12T13:50:28.561Z,12.50
2023-01-12T13:52:59.499Z,12.50
2023-01-12T13:55:28.525Z,12.50
2023-01-12T13:57:59.326Z,12.50
2023-01-12T14:00:26.566Z,12.50
2023-01-12T14:02:53.375Z,12.50
2023-01-12T14:05:45.120Z,12.60
2023-01-12T14:08:50.728Z,12.70
2023-01-12T14:11:38.638Z,12.70
2023-01-12T14:14:25.257Z,12.70
2023-01-12T14:17:10.279Z,12.70
2023-01-12T14:19:39.960Z,12.70
2023-01-12T14:22:17.655Z,12.60
2023-01-12T14:24:44.325Z,12.60
2023-01-12T14:27:23.233Z,12.60
2023-01-12T14:29:50.575Z,12.60
2023-01-12T14:32:17.868Z,12.70
2023-01-12T14:34:52.532Z,12.70
2023-01-12T14:37:28.805Z,12.70
2023-01-12T14:39:55.710Z,12.70
2023-01-12T14:42:40.833Z,12.70
2023-01-12T14:45:45.449Z,12.60
2023-01-12T14:48:29.896Z,12.70
2023-01-12T14:51:24.597Z,12.60
2023-01-12T14:54:02.193Z,12.60
2023-01-12T14:56:38.667Z,12.60
2023-01-12T14:59:07.115Z,12.60
2023-01-12T15:01:35.882Z,12.50
2023-01-12T15:04:04.122Z,12.40
2023-01-12T15:06:32.138Z,12.30
2023-01-12T15:09:00.527Z,12.10
2023-01-12T15:11:35.187Z,12.00
2023-01-12T15:14:02.845Z,12.00
2023-01-12T15:16:47.991Z,12.00
2023-01-12T15:19:33.598Z,11.90
2023-01-12T15:22:19.355Z,11.90
2023-01-12T15:25:05.182Z,11.90
2023-01-12T15:27:32.424Z,11.80
2023-01-12T15:29:59.628Z,11.70
2023-01-12T15:32:51.437Z,11.60
2023-01-12T15:35:23.824Z,11.60
2023-01-12T15:37:51.782Z,11.50
2023-01-12T15:40:18.812Z,11.20
2023-01-12T15:42:45.656Z,11.00
2023-01-12T15:45:38.585Z,10.90
2023-01-12T15:48:06.083Z,10.80
2023-01-12T15:50:33.562Z,10.70
2023-01-12T15:53:01.119Z,10.70
2023-01-12T15:55:27.991Z,10.70
2023-01-12T15:57:54.741Z,10.70
2023-01-12T16:00:24.191Z,10.70
2023-01-12T16:02:51.584Z,10.70
2023-01-12T16:05:20.487Z,10.60
2023-01-12T16:07:48.746Z,10.60
2023-01-12T16:10:17.211Z,10.50
2023-01-12T16:12:44.400Z,10.50
2023-01-12T16:15:21.856Z,10.40
2023-01-12T16:17:48.670Z,10.30
2023-01-12T16:20:16.704Z,10.40
2023-01-12T16:22:43.703Z,10.30
2023-01-12T16:25:10.735Z,10.30
2023-01-12T16:27:38.246Z,10.30
2023-01-12T16:30:06.431Z,10.30
2023-01-12T16:32:33.227Z,10.30
2023-01-12T16:34:59.917Z,10.30
2023-01-12T16:37:29.873Z,10.20
2023-01-12T16:39:56.623Z,10.20
2023-01-12T16:42:23.362Z,10.20
2023-01-12T16:44:50.134Z,10.20
2023-01-12T16:47:19.043Z,10.20
2023-01-12T16:49:48.610Z,10.20
2023-01-12T16:52:16.469Z,10.20
2023-01-12T16:54:43.668Z,10.20
2023-01-12T16:57:11.323Z,10.20
2023-01-12T16:59:38.140Z,10.20
2023-01-12T17:02:08.032Z,10.20
2023-01-12T17:04:35.832Z,10.10
2023-01-12T17:07:03.234Z,10.10
2023-01-12T17:09:30.273Z,10.10
2023-01-12T17:11:58.333Z,10.10
2023-01-12T17:14:25.591Z,10.10
2023-01-12T17:16:53.904Z,10.10
2023-01-12T17:19:20.825Z,10.20
2023-01-12T17:21:49.717Z,10.30
2023-01-12T17:24:18.331Z,10.30
2023-01-12T17:26:45.597Z,10.40
2023-01-12T17:29:12.517Z,10.40
2023-01-12T17:31:39.996Z,10.50
2023-01-12T17:34:08.171Z,10.50
2023-01-12T17:36:34.949Z,10.50
2023-01-12T17:39:01.739Z,10.60
2023-01-12T17:41:48.755Z,10.60
2023-01-12T17:44:15.567Z,10.60
2023-01-12T17:46:43.033Z,10.70
2023-01-12T17:49:11.301Z,10.80
2023-01-12T17:51:39.399Z,10.80
2023-01-12T17:54:07.928Z,10.90
2023-01-12T17:56:35.516Z,10.90
2023-01-12T17:59:03.114Z,10.90
2023-01-12T18:01:30.883Z,11.00
2023-01-12T18:03:58.144Z,10.90
2023-01-12T18:06:26.797Z,10.90
2023-01-12T18:08:56.172Z,10.80
2023-01-12T18:11:23.206Z,10.70
2023-01-12T18:13:50.041Z,10.60
2023-01-12T18:16:16.879Z,10.50
2023-01-12T18:18:44.181Z,10.40
2023-01-12T18:21:15.584Z,10.40
2023-01-12T18:23:43.488Z,10.30
2023-01-12T18:26:12.994Z,10.20
2023-01-12T18:28:40.325Z,10.20
2023-01-12T18:31:21.115Z,10.10
2023-01-12T18:33:49.262Z,10.10
2023-01-12T18:36:21.276Z,10.00
2023-01-12T18:38:49.576Z,9.90
2023-01-12T18:41:51.618Z,9.90
2023-01-12T18:44:18.347Z,9.90
2023-01-12T18:47:16.640Z,9.80
2023-01-12T18:49:57.479Z,9.80
2023-01-12T18:52:43.164Z,9.80
2023-01-12T18:55:10.118Z,9.70
2023-01-12T18:57:36.816Z,9.70
2023-01-12T19:00:16.941Z,9.70
2023-01-12T19:02:44.115Z,9.70
2023-01-12T19:05:32.956Z,9.70
2023-01-12T19:08:00.055Z,9.60
2023-01-12T19:10:27.548Z,9.60
2023-01-12T19:13:14.373Z,9.60
2023-01-12T19:16:00.168Z,9.60
2023-01-12T19:18:28.163Z,9.50
2023-01-12T19:21:15.986Z,9.50
2023-01-12T19:24:01.227Z,9.50
2023-01-12T19:26:46.609Z,9.40
2023-01-12T19:29:13.359Z,9.40
2023-01-12T19:31:40.056Z,9.40
2023-01-12T19:34:06.878Z,9.40
2023-01-12T19:36:33.641Z,9.40
2023-01-12T19:39:02.118Z,9.30
2023-01-12T19:41:47.350Z,9.30
2023-01-12T19:44:14.070Z,9.20
2023-01-12T19:46:43.388Z,9.20
2023-01-12T19:49:10.899Z,9.20
2023-01-12T19:51:38.884Z,9.20
2023-01-12T19:54:05.604Z,9.20
2023-01-12T19:56:32.273Z,9.30
2023-01-12T19:58:58.951Z,9.30
2023-01-12T20:01:26.102Z,9.20
2023-01-12T20:03:53.063Z,9.20
2023-01-12T20:06:19.715Z,9.20
2023-01-12T20:08:46.451Z,9.20
2023-01-12T20:11:13.207Z,9.20
2023-01-12T20:13:39.925Z,9.20
2023-01-12T20:16:08.003Z,9.20
2023-01-12T20:18:34.841Z,9.30
2023-01-12T20:21:03.469Z,9.40
2023-01-12T20:23:30.655Z,9.40
2023-01-12T20:25:57.893Z,9.40
2023-01-12T20:28:24.922Z,9.40
2023-01-12T20:30:51.570Z,9.20
2023-01-12T20:33:18.363Z,9.10
2023-01-12T20:35:46.701Z,8.90
2023-01-12T20:38:15.748Z,8.90
2023-01-12T20:40:44.568Z,8.80
2023-01-12T20:43:11.392Z,8.70
2023-01-12T20:45:39.949Z,8.70
2023-01-12T20:48:06.672Z,8.70
2023-01-12T20:50:33.572Z,8.70
2023-01-12T20:53:00.231Z,8.70
2023-01-12T20:55:27.004Z,8.70
2023-01-12T20:57:53.779Z,8.70
2023-01-12T21:00:20.666Z,8.70
2023-01-12T21:02:47.345Z,8.70
2023-01-12T21:05:14.127Z,8.70
2023-01-12T21:07:42.045Z,8.70
2023-01-12T21:10:09.513Z,8.70
2023-01-12T21:12:36.317Z,8.60
2023-01-12T21:15:03.638Z,8.60
2023-01-12T21:17:31.250Z,8.60
2023-01-12T21:19:57.901Z,8.60
2023-01-12T21:22:24.646Z,8.70
2023-01-12T21:24:51.418Z,8.70
2023-01-12T21:27:18.226Z,8.70
2023-01-12T21:29:45.866Z,8.70
2023-01-12T21:32:12.554Z,8.70
2023-01-12T21:34:39.505Z,8.70
2023-01-12T21:37:06.368Z,8.80
2023-01-12T21:39:33.132Z,8.80
2023-01-12T21:42:18.217Z,8.90
2023-01-12T21:44:45.136Z,8.90
2023-01-12T21:47:11.988Z,8.90
2023-01-12T21:49:38.670Z,9.00
2023-01-12T21:52:05.675Z,9.00
2023-01-12T21:54:32.356Z,9.00
2023-01-12T21:56:59.383Z,9.10
2023-01-12T21:59:26.160Z,9.10
2023-01-12T22:01:53.019Z,9.20
2023-01-12T22:04:19.813Z,9.20
2023-01-12T22:06:46.529Z,9.10
2023-01-12T22:09:13.217Z,9.20
2023-01-12T22:11:39.920Z,9.10
2023-01-12T22:14:06.705Z,9.20
2023-01-12T22:16:33.548Z,9.20
2023-01-12T22:19:00.346Z,9.10
2023-01-12T22:21:27.117Z,9.10
2023-01-12T22:23:53.923Z,9.10
2023-01-12T22:26:20.641Z,9.00
2023-01-12T22:28:48.006Z,9.00
2023-01-12T22:31:19.795Z,9.00
2023-01-12T22:33:47.557Z,9.00
2023-01-12T22:36:14.448Z,9.00
2023-01-12T22:38:42.122Z,8.90
2023-01-12T22:41:10.214Z,8.90
2023-01-12T22:43:46.050Z,8.90
2023-01-12T22:46:17.617Z,8.90
2023-01-12T22:48:44.560Z,8.80
2023-01-12T22:51:11.349Z,8.80
2023-01-12T22:53:38.007Z,8.80
2023-01-12T22:56:05.229Z,8.80
2023-01-12T22:58:31.952Z,8.80
2023-01-12T23:01:08.729Z,8.80
2023-01-12T23:03:36.544Z,8.80
2023-01-12T23:06:03.643Z,8.80
2023-01-12T23:08:30.347Z,8.80
2023-01-12T23:11:05.114Z,8.80
2023-01-12T23:13:31.905Z,8.80
2023-01-12T23:16:07.197Z,8.80
2023-01-12T23:18:35.013Z,8.80
2023-01-12T23:21:11.051Z,8.80
2023-01-12T23:23:38.465Z,8.80
2023-01-12T23:26:05.739Z,8.80
2023-01-12T23:28:36.690Z,8.80
2023-01-12T23:31:07.434Z,8.80
2023-01-12T23:33:34.352Z,8.80
2023-01-12T23:36:08.883Z,8.80
2023-01-12T23:38:35.523Z,8.80
2023-01-12T23:41:19.035Z,8.80
2023-01-12T23:43:46.530Z,8.80
2023-01-12T23:46:14.024Z,8.80
2023-01-12T23:48:40.810Z,8.80
2023-01-12T23:51:07.562Z,8.80
2023-01-12T23:53:34.265Z,8.80
2023-01-12T23:56:19.547Z,8.80
2023-01-12T23:58:47.033Z,8.80
